Airfield :
LOGIN :

Register | Disclaimer

   EN    FR    IT 

 










Legend :    VFR   Marginal VFR   IFR   Intensive IFR   Very Intensive IFR
Visi :
Ceiling :
>= 8 km
>= 3000ft
5 to 8 km
1000 to 3000 ft
1500m to 5 km
500 to 1000 ft
800 to 1500m
200 to 500 ft
< 800m
< 200 ft
Symbols :   Thunderstorms  Fog  Heavy snow  Heavy precipitations  Wind > 20 kt
SIGMETs :     Misc.  Thunderstorms  Icing  Turbulence  Mountain Waves  Volcanic Ashes







- Airport Elevation : 529 ft
- IATA code : CHR
- Download approach charts


LFLX - Chateauroux

CURRENT METAR :
  • 261930Z AUTO 05007KT CAVOK 30/18 Q1017 NOSIG

EXPIRED METARs :
  • 261900Z AUTO 06007KT CAVOK 31/18 Q1017 NOSIG
  • 261830Z AUTO 06008KT CAVOK 33/18 Q1017 NOSIG
  • 261800Z AUTO 06007KT CAVOK 34/19 Q1017 NOSIG
  • 261730Z AUTO 07007KT CAVOK 35/17 Q1017 NOSIG
  • 261700Z AUTO 09009KT CAVOK 35/17 Q1017 NOSIG

TAF TAF LFLX
Valid from the 26 at 18:00 until the 28 at 00:00 UTC


261700Z 2618/2724 07006KT CAVOK
No reported NOTAMs for that airfield.



MET'MAP, your aeronautical weather chart ! - Copyright ORBIFLY December 2007 - Disclaimer

ORBIFLY MET'MAP TEAM :

Programming & Development : Alexandra Zaïnal
Concept & Development : Baudouin d'Aumeries
Co-Development & Prog : Marc-Olivier Méhu
Technical & hardware support : Manuel Goepfert

Contact : metmap@orbifly.com




SOURCES & CREDITS :

   NOAA